createdAt,value
2018-08-18T00:02:24.432Z,99.90
2018-08-18T00:04:52.377Z,99.90
2018-08-18T00:07:20.356Z,99.90
2018-08-18T00:09:48.325Z,99.90
2018-08-18T00:12:21.721Z,99.90
2018-08-18T00:14:49.664Z,99.90
2018-08-18T00:17:17.668Z,99.90
2018-08-18T00:19:45.620Z,99.90
2018-08-18T00:22:13.575Z,99.90
2018-08-18T00:24:46.952Z,99.90
2018-08-18T00:27:15.017Z,99.90
2018-08-18T00:29:42.986Z,99.90
2018-08-18T00:32:10.984Z,99.90
2018-08-18T00:34:53.217Z,99.90
2018-08-18T00:37:21.516Z,99.90
2018-08-18T00:39:49.467Z,99.90
2018-08-18T00:42:17.448Z,99.90
2018-08-18T00:44:45.417Z,99.90
2018-08-18T00:47:13.412Z,99.90
2018-08-18T00:49:41.387Z,99.90
2018-08-18T00:52:09.331Z,99.90
2018-08-18T00:54:37.277Z,99.90
2018-08-18T00:57:15.524Z,99.90
2018-08-18T00:59:43.482Z,99.90
2018-08-18T01:02:11.429Z,99.90
2018-08-18T01:04:45.044Z,99.90
2018-08-18T01:07:14.669Z,99.90
2018-08-18T01:09:43.670Z,99.90
2018-08-18T01:12:11.770Z,99.90
2018-08-18T01:14:39.849Z,99.90
2018-08-18T01:17:07.852Z,99.90
2018-08-18T01:19:35.816Z,99.90
2018-08-18T01:22:03.995Z,99.90
2018-08-18T01:25:03.898Z,99.90
2018-08-18T01:27:37.372Z,99.90
2018-08-18T01:30:05.341Z,99.90
2018-08-18T01:32:33.980Z,99.90
2018-08-18T01:35:02.153Z,99.90
2018-08-18T01:37:31.487Z,99.90
2018-08-18T01:39:59.544Z,99.90
2018-08-18T01:42:27.516Z,99.90
2018-08-18T01:44:55.807Z,99.90
2018-08-18T01:47:23.760Z,99.90
2018-08-18T01:49:51.782Z,99.90
2018-08-18T01:52:22.005Z,99.90
2018-08-18T01:54:49.997Z,99.90
2018-08-18T01:57:18.183Z,99.90
2018-08-18T01:59:46.672Z,99.90
2018-08-18T02:02:18.215Z,99.90
2018-08-18T02:04:46.843Z,99.90
2018-08-18T02:07:31.649Z,99.90
2018-08-18T02:09:59.884Z,99.90
2018-08-18T02:12:28.269Z,99.90
2018-08-18T02:14:56.595Z,99.90
2018-08-18T02:17:31.343Z,99.90
2018-08-18T02:20:00.163Z,99.90
2018-08-18T02:22:28.700Z,99.90
2018-08-18T02:24:56.694Z,99.90
2018-08-18T02:27:24.872Z,99.90
2018-08-18T02:30:05.167Z,99.90
2018-08-18T02:32:35.594Z,99.90
2018-08-18T02:35:04.100Z,99.90
2018-08-18T02:37:32.185Z,99.90
2018-08-18T02:40:00.354Z,99.90
2018-08-18T02:42:28.267Z,99.90
2018-08-18T02:44:56.225Z,99.90
2018-08-18T02:47:24.500Z,99.90
2018-08-18T02:49:53.608Z,99.90
2018-08-18T02:52:22.919Z,99.90
2018-08-18T02:54:52.978Z,99.90
2018-08-18T02:57:25.132Z,99.90
2018-08-18T02:59:54.448Z,99.90
2018-08-18T03:02:22.418Z,99.90
2018-08-18T03:04:50.474Z,99.90
2018-08-18T03:07:18.432Z,99.90
2018-08-18T03:09:46.406Z,99.90
2018-08-18T03:12:14.355Z,99.90
2018-08-18T03:14:42.430Z,99.90
2018-08-18T03:17:11.541Z,99.90
2018-08-18T03:19:40.277Z,99.90
2018-08-18T03:22:08.240Z,99.90
2018-08-18T03:24:36.244Z,99.90
2018-08-18T03:27:04.239Z,99.90
2018-08-18T03:29:37.183Z,99.90
2018-08-18T03:32:05.596Z,99.90
2018-08-18T03:34:33.627Z,99.90
2018-08-18T03:37:01.640Z,99.90
2018-08-18T03:39:34.222Z,99.90
2018-08-18T03:42:03.562Z,99.90
2018-08-18T03:44:33.158Z,99.90
2018-08-18T03:47:01.404Z,99.90
2018-08-18T03:49:29.359Z,99.90
2018-08-18T03:51:57.312Z,99.90
2018-08-18T03:54:25.317Z,99.90
2018-08-18T03:56:53.249Z,99.90
2018-08-18T03:59:21.229Z,99.90
2018-08-18T04:01:52.862Z,99.90
2018-08-18T04:04:23.048Z,99.90
2018-08-18T04:06:52.356Z,99.90
2018-08-18T04:09:21.498Z,99.90
2018-08-18T04:11:49.767Z,99.90
2018-08-18T04:14:19.608Z,99.90
2018-08-18T04:16:49.728Z,99.90
2018-08-18T04:19:18.845Z,99.90
2018-08-18T04:21:47.315Z,99.90
2018-08-18T04:24:15.712Z,99.90
2018-08-18T04:26:46.261Z,99.90
2018-08-18T04:29:14.208Z,99.90
2018-08-18T04:31:42.183Z,99.90
2018-08-18T04:34:10.174Z,99.90
2018-08-18T04:36:38.148Z,99.90
2018-08-18T04:39:07.517Z,99.90
2018-08-18T04:41:35.884Z,99.90
2018-08-18T04:44:03.965Z,99.90
2018-08-18T04:46:32.193Z,99.90
2018-08-18T04:49:00.161Z,99.90
2018-08-18T04:51:28.304Z,99.90
2018-08-18T04:53:56.263Z,99.90
2018-08-18T04:56:24.228Z,99.90
2018-08-18T04:58:52.175Z,99.90
2018-08-18T05:01:20.152Z,99.90
2018-08-18T05:04:00.812Z,99.90
2018-08-18T05:06:30.037Z,99.90
2018-08-18T05:08:59.145Z,99.90
2018-08-18T05:11:27.728Z,99.90
2018-08-18T05:13:55.764Z,99.90
2018-08-18T05:16:23.724Z,99.90
2018-08-18T05:18:51.715Z,99.90
2018-08-18T05:21:21.085Z,99.90
2018-08-18T05:23:49.072Z,99.90
2018-08-18T05:26:17.057Z,99.90
2018-08-18T05:28:45.138Z,99.90
2018-08-18T05:31:13.087Z,99.90
2018-08-18T05:33:41.054Z,99.90
2018-08-18T05:36:09.580Z,99.90
2018-08-18T05:38:38.216Z,99.90
2018-08-18T05:41:06.190Z,99.90
2018-08-18T05:43:34.156Z,99.90
2018-08-18T05:46:03.765Z,99.90
2018-08-18T05:48:32.013Z,99.90
2018-08-18T05:50:59.966Z,99.90
2018-08-18T05:53:30.992Z,99.90
2018-08-18T05:55:59.579Z,99.90
2018-08-18T05:58:29.508Z,99.90
2018-08-18T06:01:06.849Z,99.90
2018-08-18T06:03:34.830Z,99.90
2018-08-18T06:06:03.272Z,99.90
2018-08-18T06:08:31.383Z,99.90
2018-08-18T06:10:59.426Z,99.90
2018-08-18T06:13:27.393Z,99.90
2018-08-18T06:16:08.488Z,99.90
2018-08-18T06:18:37.932Z,99.90
2018-08-18T06:21:06.636Z,99.90
2018-08-18T06:23:34.961Z,99.90
2018-08-18T06:26:03.822Z,99.90
2018-08-18T06:28:32.227Z,99.90
2018-08-18T06:31:00.190Z,99.90
2018-08-18T06:33:28.177Z,99.90
2018-08-18T06:35:56.376Z,99.90
2018-08-18T06:38:24.316Z,99.90
2018-08-18T06:40:59.302Z,99.90
2018-08-18T06:43:28.088Z,99.90
2018-08-18T06:45:56.058Z,99.90
2018-08-18T06:48:24.264Z,99.90
2018-08-18T06:50:52.348Z,99.90
2018-08-18T06:53:20.322Z,99.90
2018-08-18T06:55:48.270Z,99.90
2018-08-18T06:58:16.219Z,99.90
2018-08-18T07:00:44.268Z,99.90
2018-08-18T07:03:23.772Z,99.90
2018-08-18T07:05:51.761Z,99.90
2018-08-18T07:08:19.716Z,99.90
2018-08-18T07:10:47.680Z,99.90
2018-08-18T07:13:15.745Z,99.90
2018-08-18T07:15:45.063Z,99.90
2018-08-18T07:18:14.060Z,99.90
2018-08-18T07:20:42.443Z,99.90
2018-08-18T07:23:10.387Z,99.90
2018-08-18T07:25:47.844Z,99.90
2018-08-18T07:28:18.257Z,99.90
2018-08-18T07:30:46.193Z,99.90
2018-08-18T07:33:14.242Z,99.90
2018-08-18T07:35:42.261Z,99.90
2018-08-18T07:38:10.353Z,99.90
2018-08-18T07:40:52.725Z,99.90
2018-08-18T07:43:25.820Z,99.90
2018-08-18T07:45:54.931Z,99.90
2018-08-18T07:48:22.908Z,99.90
2018-08-18T07:50:50.877Z,99.90
2018-08-18T07:53:19.056Z,99.90
2018-08-18T07:55:46.854Z,99.90
2018-08-18T07:58:17.717Z,99.90
2018-08-18T08:00:45.696Z,99.90
2018-08-18T08:03:15.103Z,99.90
2018-08-18T08:05:43.237Z,99.90
2018-08-18T08:08:11.572Z,99.90
2018-08-18T08:10:39.679Z,99.90
2018-08-18T08:13:08.584Z,99.90
2018-08-18T08:15:36.549Z,99.90
2018-08-18T08:18:05.248Z,99.90
2018-08-18T08:20:33.229Z,99.90
2018-08-18T08:23:01.183Z,99.90
2018-08-18T08:25:29.142Z,99.90
2018-08-18T08:27:57.106Z,99.90
2018-08-18T08:30:26.280Z,99.90
2018-08-18T08:32:54.352Z,99.90
2018-08-18T08:35:22.332Z,99.90
2018-08-18T08:37:51.771Z,99.90
2018-08-18T08:40:20.906Z,99.90
2018-08-18T08:42:49.000Z,99.90
2018-08-18T08:45:19.088Z,99.90
2018-08-18T08:47:47.782Z,99.90
2018-08-18T08:50:17.709Z,99.90
2018-08-18T08:52:47.446Z,99.90
2018-08-18T08:55:16.228Z,99.90
2018-08-18T08:57:44.313Z,99.90
2018-08-18T09:00:12.504Z,99.90
2018-08-18T09:02:40.572Z,99.90
2018-08-18T09:05:08.864Z,99.90
2018-08-18T09:07:37.373Z,99.90
2018-08-18T09:10:07.080Z,99.90
2018-08-18T09:12:36.264Z,99.90
2018-08-18T09:15:05.027Z,99.90
2018-08-18T09:17:33.095Z,99.90
2018-08-18T09:20:01.063Z,99.90
2018-08-18T09:22:30.470Z,99.90
2018-08-18T09:25:02.680Z,99.90
2018-08-18T09:27:31.364Z,99.90
2018-08-18T09:29:59.545Z,99.90
2018-08-18T09:32:27.727Z,99.90
2018-08-18T09:34:55.783Z,99.90
2018-08-18T09:37:23.801Z,99.90
2018-08-18T09:39:51.857Z,99.90
2018-08-18T09:42:20.392Z,99.90
2018-08-18T09:44:50.569Z,99.90
2018-08-18T09:47:18.547Z,99.90
2018-08-18T09:49:46.664Z,99.90
2018-08-18T09:52:17.301Z,99.90
2018-08-18T09:54:45.268Z,99.90
2018-08-18T09:57:13.264Z,99.90
2018-08-18T09:59:41.239Z,99.90
2018-08-18T10:02:11.608Z,99.90
2018-08-18T10:04:39.556Z,99.90
2018-08-18T10:07:07.488Z,99.90
2018-08-18T10:09:35.468Z,99.90
2018-08-18T10:12:03.450Z,99.90
2018-08-18T10:14:31.760Z,99.90
2018-08-18T10:16:59.815Z,99.90
2018-08-18T10:19:27.757Z,99.90
2018-08-18T10:21:55.721Z,99.90
2018-08-18T10:24:23.683Z,99.90
2018-08-18T10:26:55.879Z,99.90
2018-08-18T10:29:25.007Z,99.90
2018-08-18T10:31:54.116Z,99.90
2018-08-18T10:34:23.333Z,99.90
2018-08-18T10:36:57.667Z,99.90
2018-08-18T10:39:25.655Z,99.90
2018-08-18T10:42:03.803Z,99.90
2018-08-18T10:44:31.728Z,99.90
2018-08-18T10:47:08.627Z,99.90
2018-08-18T10:49:49.627Z,99.90
2018-08-18T10:52:30.092Z,99.90
2018-08-18T10:55:00.235Z,99.90
2018-08-18T10:57:39.876Z,99.90
2018-08-18T11:00:10.340Z,99.90
2018-08-18T11:02:38.308Z,99.90
2018-08-18T11:05:06.700Z,99.90
2018-08-18T11:07:34.660Z,99.90
2018-08-18T11:10:02.647Z,99.90
2018-08-18T11:12:34.179Z,99.90
2018-08-18T11:15:02.619Z,99.90
2018-08-18T11:17:31.668Z,99.90
2018-08-18T11:20:02.587Z,99.90
2018-08-18T11:22:47.562Z,99.90
2018-08-18T11:25:15.527Z,99.90
2018-08-18T11:27:43.492Z,99.90
2018-08-18T11:30:11.713Z,99.90
2018-08-18T11:32:40.125Z,99.90
2018-08-18T11:35:09.041Z,99.90
2018-08-18T11:37:51.712Z,99.90
2018-08-18T11:40:20.524Z,99.90
2018-08-18T11:42:48.912Z,99.90
2018-08-18T11:45:17.518Z,99.40
2018-08-18T11:47:54.813Z,98.20
2018-08-18T11:50:24.256Z,98.10
2018-08-18T11:52:52.254Z,96.60
2018-08-18T11:55:21.205Z,96.30
2018-08-18T11:57:49.152Z,94.80
2018-08-18T12:00:17.110Z,92.90
2018-08-18T12:02:45.157Z,92.10
2018-08-18T12:05:13.186Z,86.00
2018-08-18T12:07:41.228Z,84.50
2018-08-18T12:10:09.196Z,78.00
2018-08-18T12:12:37.280Z,74.50
2018-08-18T12:15:05.381Z,73.40
2018-08-18T12:17:34.295Z,71.60
2018-08-18T12:20:03.840Z,69.60
2018-08-18T12:22:32.389Z,70.40
2018-08-18T12:25:00.990Z,65.30
2018-08-18T12:27:30.085Z,62.70
2018-08-18T12:29:58.071Z,63.20
2018-08-18T12:32:26.963Z,62.00
2018-08-18T12:34:56.173Z,61.00
2018-08-18T12:37:26.142Z,59.00
2018-08-18T12:39:54.706Z,60.20
2018-08-18T12:42:27.073Z,59.20
2018-08-18T12:44:55.480Z,59.10
2018-08-18T12:47:23.433Z,58.60
2018-08-18T12:49:52.241Z,58.80
2018-08-18T12:52:20.135Z,57.40
2018-08-18T12:54:48.114Z,56.80
2018-08-18T12:57:26.341Z,54.40
2018-08-18T12:59:54.436Z,53.60
2018-08-18T13:02:27.108Z,51.80
2018-08-18T13:04:55.105Z,52.50
2018-08-18T13:07:23.053Z,52.00
2018-08-18T13:10:00.019Z,51.30
2018-08-18T13:12:27.952Z,52.10
2018-08-18T13:14:56.004Z,51.60
2018-08-18T13:17:23.956Z,51.50
2018-08-18T13:19:51.985Z,51.80
2018-08-18T13:22:19.981Z,51.20
2018-08-18T13:24:47.910Z,51.20
2018-08-18T13:27:15.856Z,50.70
2018-08-18T13:29:43.915Z,50.00
2018-08-18T13:32:11.920Z,50.70
2018-08-18T13:34:40.393Z,49.60
2018-08-18T13:37:08.348Z,50.70
2018-08-18T13:39:36.475Z,50.90
2018-08-18T13:42:18.915Z,51.20
2018-08-18T13:44:46.915Z,51.20
2018-08-18T13:47:15.020Z,50.90
2018-08-18T13:49:42.901Z,50.50
2018-08-18T13:52:10.912Z,51.60
2018-08-18T13:54:43.120Z,50.20
2018-08-18T13:57:11.095Z,49.90
2018-08-18T13:59:39.220Z,51.30
2018-08-18T14:02:07.674Z,50.70
2018-08-18T14:04:35.692Z,52.10
2018-08-18T14:07:03.797Z,51.00
2018-08-18T14:09:31.767Z,51.80
2018-08-18T14:12:05.123Z,50.10
2018-08-18T14:14:33.091Z,51.50
2018-08-18T14:17:01.085Z,49.90
2018-08-18T14:19:29.018Z,49.90
2018-08-18T14:22:02.466Z,49.10
2018-08-18T14:24:34.449Z,48.80
2018-08-18T14:27:03.993Z,50.50
2018-08-18T14:29:33.059Z,51.00
2018-08-18T14:32:01.801Z,50.00
2018-08-18T14:34:29.825Z,51.10
2018-08-18T14:37:03.249Z,50.60
2018-08-18T14:39:37.757Z,50.50
2018-08-18T14:42:06.112Z,50.90
2018-08-18T14:44:34.189Z,52.20
2018-08-18T14:47:02.110Z,51.30
2018-08-18T14:49:30.155Z,48.80
2018-08-18T14:51:58.115Z,49.40
2018-08-18T14:54:28.472Z,49.70
2018-08-18T14:56:57.228Z,50.40
2018-08-18T14:59:32.507Z,49.80
2018-08-18T15:02:01.427Z,49.90
2018-08-18T15:04:29.540Z,49.40
2018-08-18T15:06:57.455Z,50.40
2018-08-18T15:09:33.957Z,49.40
2018-08-18T15:12:02.898Z,49.40
2018-08-18T15:14:31.421Z,49.90
2018-08-18T15:16:59.390Z,49.70
2018-08-18T15:19:27.539Z,50.20
2018-08-18T15:21:55.517Z,50.30
2018-08-18T15:24:24.379Z,50.70
2018-08-18T15:26:52.669Z,50.30
2018-08-18T15:29:20.708Z,51.70
2018-08-18T15:31:49.250Z,51.40
2018-08-18T15:34:17.219Z,51.80
2018-08-18T15:36:46.242Z,51.50
2018-08-18T15:39:14.200Z,52.00
2018-08-18T15:41:42.704Z,53.00
2018-08-18T15:44:11.103Z,53.00
2018-08-18T15:46:39.079Z,53.00
2018-08-18T15:49:07.059Z,53.60
2018-08-18T15:51:35.181Z,52.80
2018-08-18T15:54:04.197Z,54.10
2018-08-18T15:56:33.485Z,53.80
2018-08-18T15:59:02.279Z,54.00
2018-08-18T16:01:31.475Z,54.20
2018-08-18T16:04:00.367Z,54.40
2018-08-18T16:06:28.433Z,54.90
2018-08-18T16:08:56.639Z,55.50
2018-08-18T16:11:24.924Z,55.20
2018-08-18T16:13:53.032Z,55.20
2018-08-18T16:16:20.929Z,55.10
2018-08-18T16:18:49.331Z,55.10
2018-08-18T16:21:22.191Z,54.90
2018-08-18T16:23:50.415Z,55.20
2018-08-18T16:26:18.336Z,55.60
2018-08-18T16:28:46.267Z,55.30
2018-08-18T16:31:14.508Z,55.40
2018-08-18T16:33:43.400Z,55.20
2018-08-18T16:36:11.416Z,55.50
2018-08-18T16:38:39.382Z,54.90
2018-08-18T16:41:07.388Z,55.40
2018-08-18T16:43:36.684Z,55.20
2018-08-18T16:46:21.660Z,55.20
2018-08-18T16:48:50.460Z,55.50
2018-08-18T16:51:18.640Z,56.00
2018-08-18T16:53:47.022Z,55.90
2018-08-18T16:56:21.157Z,56.30
2018-08-18T16:58:51.502Z,57.10
2018-08-18T17:01:19.896Z,56.90
2018-08-18T17:03:47.963Z,57.10
2018-08-18T17:06:15.855Z,57.30
2018-08-18T17:08:43.935Z,57.70
2018-08-18T17:11:11.901Z,58.90
2018-08-18T17:13:39.876Z,59.00
2018-08-18T17:16:07.967Z,59.10
2018-08-18T17:18:35.977Z,59.10
2018-08-18T17:21:05.405Z,59.30
2018-08-18T17:23:34.632Z,59.50
2018-08-18T17:26:03.687Z,59.30
2018-08-18T17:28:32.413Z,59.40
2018-08-18T17:31:02.113Z,59.40
2018-08-18T17:33:30.414Z,59.60
2018-08-18T17:35:58.385Z,60.10
2018-08-18T17:38:26.330Z,60.20
2018-08-18T17:40:54.279Z,60.90
2018-08-18T17:43:22.244Z,61.10
2018-08-18T17:45:53.812Z,61.30
2018-08-18T17:48:22.592Z,61.80
2018-08-18T17:50:50.993Z,62.30
2018-08-18T17:53:19.159Z,62.60
2018-08-18T17:55:55.429Z,63.00
2018-08-18T17:58:23.720Z,63.30
2018-08-18T18:00:51.671Z,63.60
2018-08-18T18:03:19.625Z,63.80
2018-08-18T18:05:47.592Z,64.00
2018-08-18T18:08:15.556Z,64.60
2018-08-18T18:10:44.431Z,64.90
2018-08-18T18:13:17.751Z,65.40
2018-08-18T18:15:47.068Z,66.00
2018-08-18T18:18:16.938Z,66.50
2018-08-18T18:20:46.315Z,66.70
2018-08-18T18:23:15.123Z,66.90
2018-08-18T18:25:43.092Z,68.10
2018-08-18T18:28:11.193Z,67.90
2018-08-18T18:30:39.164Z,68.40
2018-08-18T18:33:07.947Z,68.70
2018-08-18T18:35:35.921Z,68.80
2018-08-18T18:38:04.557Z,69.20
2018-08-18T18:40:38.784Z,69.60
2018-08-18T18:43:07.076Z,69.70
2018-08-18T18:45:35.113Z,70.00
2018-08-18T18:48:03.344Z,70.60
2018-08-18T18:50:31.313Z,70.70
2018-08-18T18:52:59.280Z,70.50
2018-08-18T18:55:27.263Z,71.00
2018-08-18T18:58:06.507Z,71.50
2018-08-18T19:00:35.964Z,72.20
2018-08-18T19:03:05.325Z,72.00
2018-08-18T19:05:33.330Z,72.50
2018-08-18T19:08:09.628Z,72.10
2018-08-18T19:10:37.597Z,73.40
2018-08-18T19:13:05.898Z,73.20
2018-08-18T19:15:33.907Z,74.30
2018-08-18T19:18:02.092Z,74.40
2018-08-18T19:20:30.626Z,74.80
2018-08-18T19:23:04.139Z,74.70
2018-08-18T19:25:33.088Z,75.00
2018-08-18T19:28:01.245Z,75.70
2018-08-18T19:30:29.644Z,75.50
2018-08-18T19:32:57.577Z,75.90
2018-08-18T19:35:31.748Z,76.80
2018-08-18T19:38:02.938Z,77.00
2018-08-18T19:40:30.966Z,77.50
2018-08-18T19:42:58.908Z,78.20
2018-08-18T19:45:26.860Z,79.10
2018-08-18T19:47:54.813Z,78.90
2018-08-18T19:50:22.796Z,79.50
2018-08-18T19:52:54.397Z,79.90
2018-08-18T19:55:22.348Z,80.40
2018-08-18T19:57:50.311Z,81.40
2018-08-18T20:00:20.322Z,81.30
2018-08-18T20:02:51.595Z,82.40
2018-08-18T20:05:20.561Z,84.60
2018-08-18T20:07:48.703Z,84.80
2018-08-18T20:10:16.888Z,84.50
2018-08-18T20:12:45.993Z,85.40
2018-08-18T20:15:14.282Z,87.90
2018-08-18T20:17:42.781Z,89.90
2018-08-18T20:20:10.844Z,90.50
2018-08-18T20:22:39.041Z,90.30
2018-08-18T20:25:07.182Z,90.90
2018-08-18T20:27:35.374Z,91.20
2018-08-18T20:30:03.355Z,91.80
2018-08-18T20:32:31.371Z,92.50
2018-08-18T20:34:59.301Z,92.80
2018-08-18T20:37:27.252Z,93.60
2018-08-18T20:39:55.737Z,94.20
2018-08-18T20:42:27.940Z,95.70
2018-08-18T20:44:58.240Z,97.00
2018-08-18T20:47:28.089Z,98.80
2018-08-18T20:49:56.580Z,99.70
2018-08-18T20:52:24.555Z,99.90
2018-08-18T20:54:53.360Z,99.90
2018-08-18T20:57:21.535Z,99.90
2018-08-18T20:59:50.025Z,99.90
2018-08-18T21:02:17.999Z,99.90
2018-08-18T21:04:52.779Z,99.90
2018-08-18T21:07:21.673Z,99.90
2018-08-18T21:09:49.684Z,99.90
2018-08-18T21:12:17.629Z,99.90
2018-08-18T21:14:45.596Z,99.90
2018-08-18T21:17:13.673Z,99.90
2018-08-18T21:19:41.623Z,99.90
2018-08-18T21:22:11.593Z,99.90
2018-08-18T21:24:39.900Z,99.90
2018-08-18T21:27:07.890Z,99.90
2018-08-18T21:29:35.867Z,99.90
2018-08-18T21:32:03.899Z,99.90
2018-08-18T21:34:40.339Z,99.90
2018-08-18T21:37:08.279Z,99.90
2018-08-18T21:39:36.252Z,99.90
2018-08-18T21:42:05.060Z,99.90
2018-08-18T21:44:33.042Z,99.90
2018-08-18T21:47:02.033Z,99.90
2018-08-18T21:49:29.969Z,99.90
2018-08-18T21:51:58.124Z,99.90
2018-08-18T21:54:27.536Z,99.90
2018-08-18T21:56:55.495Z,99.90
2018-08-18T21:59:23.467Z,99.90
2018-08-18T22:01:55.695Z,99.90
2018-08-18T22:04:23.760Z,99.90
2018-08-18T22:06:51.768Z,99.90
2018-08-18T22:09:24.286Z,99.90
2018-08-18T22:11:52.308Z,99.90
2018-08-18T22:14:20.256Z,99.90
2018-08-18T22:16:55.241Z,99.90
2018-08-18T22:19:23.687Z,99.90
2018-08-18T22:21:51.717Z,99.90
2018-08-18T22:24:19.728Z,99.90
2018-08-18T22:26:47.867Z,99.90
2018-08-18T22:29:15.817Z,99.90
2018-08-18T22:31:43.772Z,99.90
2018-08-18T22:34:11.927Z,99.90
2018-08-18T22:36:39.906Z,99.90
2018-08-18T22:39:09.244Z,99.90
2018-08-18T22:41:37.934Z,99.90
2018-08-18T22:44:06.047Z,99.90
2018-08-18T22:46:34.044Z,99.90
2018-08-18T22:49:02.036Z,99.90
2018-08-18T22:51:30.049Z,99.90
2018-08-18T22:53:58.325Z,99.90
2018-08-18T22:56:31.688Z,99.90
2018-08-18T22:59:05.659Z,99.90
2018-08-18T23:01:35.101Z,99.90
2018-08-18T23:04:04.205Z,99.90
2018-08-18T23:06:35.414Z,99.90
2018-08-18T23:09:05.292Z,99.90
2018-08-18T23:11:33.257Z,99.90
2018-08-18T23:14:01.209Z,99.90
2018-08-18T23:16:29.173Z,99.90
2018-08-18T23:18:57.124Z,99.90
2018-08-18T23:21:30.852Z,99.90
2018-08-18T23:24:00.644Z,99.90
2018-08-18T23:26:28.820Z,99.90
2018-08-18T23:28:57.891Z,99.90
2018-08-18T23:31:25.896Z,99.90
2018-08-18T23:33:53.998Z,99.90
2018-08-18T23:36:21.940Z,99.90
2018-08-18T23:38:55.361Z,99.90
2018-08-18T23:41:23.319Z,99.90
2018-08-18T23:43:51.545Z,99.90
2018-08-18T23:46:19.518Z,99.90
2018-08-18T23:48:47.483Z,99.90
2018-08-18T23:51:15.436Z,99.90
2018-08-18T23:53:43.440Z,99.90
2018-08-18T23:56:11.391Z,99.90
2018-08-18T23:58:39.433Z,99.90
